sensor_id;sensor_type;location;lat;lon;timestamp;P1;durP1;ratioP1;P2;durP2;ratioP2
38994;SDS011;24769;18.712;99.000;2023-04-06T00:00:26;291.50;;;282.00;;
38994;SDS011;24769;18.712;99.000;2023-04-06T00:02:52;284.67;;;273.67;;
38994;SDS011;24769;18.712;99.000;2023-04-06T00:05:19;286.33;;;280.67;;
38994;SDS011;24769;18.712;99.000;2023-04-06T00:07:47;278.00;;;274.00;;
38994;SDS011;24769;18.712;99.000;2023-04-06T00:10:13;300.67;;;291.67;;
38994;SDS011;24769;18.712;99.000;2023-04-06T00:12:41;310.00;;;298.00;;
38994;SDS011;24769;18.712;99.000;2023-04-06T00:15:08;299.00;;;287.67;;
38994;SDS011;24769;18.712;99.000;2023-04-06T00:17:35;304.33;;;302.00;;
38994;SDS011;24769;18.712;99.000;2023-04-06T00:20:02;324.00;;;311.67;;
38994;SDS011;24769;18.712;99.000;2023-04-06T00:22:29;326.33;;;317.67;;
38994;SDS011;24769;18.712;99.000;2023-04-06T00:24:56;336.67;;;328.00;;
38994;SDS011;24769;18.712;99.000;2023-04-06T00:27:23;315.67;;;312.33;;
38994;SDS011;24769;18.712;99.000;2023-04-06T00:29:49;357.67;;;339.67;;
38994;SDS011;24769;18.712;99.000;2023-04-06T00:32:16;334.67;;;330.67;;
38994;SDS011;24769;18.712;99.000;2023-04-06T00:34:43;331.75;;;326.75;;
38994;SDS011;24769;18.712;99.000;2023-04-06T00:37:11;343.80;;;331.80;;
38994;SDS011;24769;18.712;99.000;2023-04-06T00:39:37;329.50;;;319.50;;
38994;SDS011;24769;18.712;99.000;2023-04-06T00:42:13;358.50;;;344.50;;
38994;SDS011;24769;18.712;99.000;2023-04-06T00:44:40;360.00;;;349.25;;
38994;SDS011;24769;18.712;99.000;2023-04-06T00:47:07;358.00;;;344.25;;
38994;SDS011;24769;18.712;99.000;2023-04-06T00:49:35;350.75;;;340.75;;
38994;SDS011;24769;18.712;99.000;2023-04-06T00:52:01;354.25;;;340.75;;
38994;SDS011;24769;18.712;99.000;2023-04-06T00:54:29;371.00;;;362.50;;
38994;SDS011;24769;18.712;99.000;2023-04-06T00:56:56;375.80;;;364.80;;
38994;SDS011;24769;18.712;99.000;2023-04-06T00:59:23;388.75;;;375.00;;
38994;SDS011;24769;18.712;99.000;2023-04-06T01:01:50;399.25;;;381.00;;
38994;SDS011;24769;18.712;99.000;2023-04-06T01:04:17;430.00;;;411.00;;
38994;SDS011;24769;18.712;99.000;2023-04-06T01:06:44;411.60;;;397.20;;
38994;SDS011;24769;18.712;99.000;2023-04-06T01:09:11;438.20;;;423.80;;
38994;SDS011;24769;18.712;99.000;2023-04-06T01:11:37;430.25;;;408.50;;
38994;SDS011;24769;18.712;99.000;2023-04-06T01:14:04;467.80;;;444.40;;
38994;SDS011;24769;18.712;99.000;2023-04-06T01:16:31;474.00;;;447.20;;
38994;SDS011;24769;18.712;99.000;2023-04-06T01:18:58;470.80;;;449.80;;
38994;SDS011;24769;18.712;99.000;2023-04-06T01:21:25;477.80;;;456.00;;
38994;SDS011;24769;18.712;99.000;2023-04-06T01:23:52;485.00;;;462.20;;
38994;SDS011;24769;18.712;99.000;2023-04-06T01:26:18;481.40;;;459.60;;
38994;SDS011;24769;18.712;99.000;2023-04-06T01:28:45;480.20;;;457.80;;
38994;SDS011;24769;18.712;99.000;2023-04-06T01:31:12;488.60;;;465.20;;
38994;SDS011;24769;18.712;99.000;2023-04-06T01:33:39;477.20;;;455.20;;
38994;SDS011;24769;18.712;99.000;2023-04-06T01:36:05;476.60;;;459.00;;
38994;SDS011;24769;18.712;99.000;2023-04-06T01:38:32;421.20;;;405.20;;
38994;SDS011;24769;18.712;99.000;2023-04-06T01:41:00;458.80;;;447.00;;
38994;SDS011;24769;18.712;99.000;2023-04-06T01:43:26;467.50;;;450.50;;
38994;SDS011;24769;18.712;99.000;2023-04-06T01:45:53;486.00;;;459.20;;
38994;SDS011;24769;18.712;99.000;2023-04-06T01:48:22;447.60;;;440.20;;
38994;SDS011;24769;18.712;99.000;2023-04-06T01:50:49;464.25;;;440.75;;
38994;SDS011;24769;18.712;99.000;2023-04-06T01:53:16;496.20;;;479.00;;
38994;SDS011;24769;18.712;99.000;2023-04-06T01:55:44;456.67;;;452.67;;
38994;SDS011;24769;18.712;99.000;2023-04-06T01:58:11;466.20;;;449.20;;
38994;SDS011;24769;18.712;99.000;2023-04-06T02:00:38;464.60;;;457.20;;
38994;SDS011;24769;18.712;99.000;2023-04-06T02:03:05;467.00;;;449.40;;
38994;SDS011;24769;18.712;99.000;2023-04-06T02:05:32;478.75;;;462.25;;
38994;SDS011;24769;18.712;99.000;2023-04-06T02:08:05;503.40;;;465.60;;
38994;SDS011;24769;18.712;99.000;2023-04-06T02:10:33;485.75;;;462.75;;
38994;SDS011;24769;18.712;99.000;2023-04-06T02:13:00;476.20;;;458.80;;
38994;SDS011;24769;18.712;99.000;2023-04-06T02:15:27;465.40;;;449.80;;
38994;SDS011;24769;18.712;99.000;2023-04-06T02:17:54;471.80;;;450.20;;
38994;SDS011;24769;18.712;99.000;2023-04-06T02:20:20;477.00;;;464.75;;
38994;SDS011;24769;18.712;99.000;2023-04-06T02:22:47;481.80;;;468.20;;
38994;SDS011;24769;18.712;99.000;2023-04-06T02:25:14;476.80;;;472.40;;
38994;SDS011;24769;18.712;99.000;2023-04-06T02:27:41;464.40;;;448.40;;
38994;SDS011;24769;18.712;99.000;2023-04-06T02:30:08;447.00;;;430.40;;
38994;SDS011;24769;18.712;99.000;2023-04-06T02:32:35;463.67;;;451.00;;
38994;SDS011;24769;18.712;99.000;2023-04-06T02:35:02;474.60;;;457.40;;
38994;SDS011;24769;18.712;99.000;2023-04-06T02:37:29;484.00;;;471.20;;
38994;SDS011;24769;18.712;99.000;2023-04-06T02:39:56;488.80;;;467.00;;
38994;SDS011;24769;18.712;99.000;2023-04-06T02:42:23;490.60;;;468.40;;
38994;SDS011;24769;18.712;99.000;2023-04-06T02:44:50;479.40;;;463.00;;
38994;SDS011;24769;18.712;99.000;2023-04-06T02:47:16;481.40;;;468.60;;
38994;SDS011;24769;18.712;99.000;2023-04-06T02:49:43;463.80;;;455.60;;
38994;SDS011;24769;18.712;99.000;2023-04-06T02:52:10;478.80;;;463.20;;
38994;SDS011;24769;18.712;99.000;2023-04-06T02:54:37;482.00;;;461.60;;
38994;SDS011;24769;18.712;99.000;2023-04-06T02:57:03;468.20;;;453.20;;
38994;SDS011;24769;18.712;99.000;2023-04-06T02:59:33;456.00;;;446.20;;
38994;SDS011;24769;18.712;99.000;2023-04-06T03:02:00;474.60;;;458.80;;
38994;SDS011;24769;18.712;99.000;2023-04-06T03:04:27;472.80;;;463.60;;
38994;SDS011;24769;18.712;99.000;2023-04-06T03:06:53;468.40;;;451.80;;
38994;SDS011;24769;18.712;99.000;2023-04-06T03:09:20;489.75;;;476.75;;
38994;SDS011;24769;18.712;99.000;2023-04-06T03:11:47;476.00;;;457.00;;
38994;SDS011;24769;18.712;99.000;2023-04-06T03:14:14;488.20;;;469.60;;
38994;SDS011;24769;18.712;99.000;2023-04-06T03:16:43;465.40;;;462.00;;
38994;SDS011;24769;18.712;99.000;2023-04-06T03:19:11;469.80;;;460.60;;
38994;SDS011;24769;18.712;99.000;2023-04-06T03:21:38;465.00;;;454.40;;
38994;SDS011;24769;18.712;99.000;2023-04-06T03:24:05;459.75;;;445.75;;
38994;SDS011;24769;18.712;99.000;2023-04-06T03:26:32;472.80;;;456.60;;
38994;SDS011;24769;18.712;99.000;2023-04-06T03:28:59;476.75;;;462.75;;
38994;SDS011;24769;18.712;99.000;2023-04-06T03:31:26;457.25;;;446.50;;
38994;SDS011;24769;18.712;99.000;2023-04-06T03:33:52;438.40;;;428.80;;
38994;SDS011;24769;18.712;99.000;2023-04-06T03:36:19;425.25;;;411.75;;
38994;SDS011;24769;18.712;99.000;2023-04-06T03:38:46;463.40;;;447.40;;
38994;SDS011;24769;18.712;99.000;2023-04-06T03:41:13;455.60;;;440.20;;
38994;SDS011;24769;18.712;99.000;2023-04-06T03:43:40;452.75;;;439.00;;
38994;SDS011;24769;18.712;99.000;2023-04-06T03:46:06;436.20;;;425.00;;
38994;SDS011;24769;18.712;99.000;2023-04-06T03:48:33;451.60;;;436.20;;
38994;SDS011;24769;18.712;99.000;2023-04-06T03:51:00;446.60;;;437.00;;
38994;SDS011;24769;18.712;99.000;2023-04-06T03:53:26;437.00;;;428.50;;
38994;SDS011;24769;18.712;99.000;2023-04-06T03:55:53;437.00;;;433.60;;
38994;SDS011;24769;18.712;99.000;2023-04-06T03:58:20;421.40;;;407.60;;
38994;SDS011;24769;18.712;99.000;2023-04-06T04:00:47;417.20;;;406.60;;
38994;SDS011;24769;18.712;99.000;2023-04-06T04:03:13;398.60;;;388.00;;
38994;SDS011;24769;18.712;99.000;2023-04-06T04:05:40;416.20;;;403.80;;
38994;SDS011;24769;18.712;99.000;2023-04-06T04:08:07;424.60;;;411.80;;
38994;SDS011;24769;18.712;99.000;2023-04-06T04:10:34;425.00;;;415.00;;
38994;SDS011;24769;18.712;99.000;2023-04-06T04:13:01;417.40;;;403.40;;
38994;SDS011;24769;18.712;99.000;2023-04-06T04:15:28;408.60;;;401.60;;
38994;SDS011;24769;18.712;99.000;2023-04-06T04:17:55;410.00;;;397.40;;
38994;SDS011;24769;18.712;99.000;2023-04-06T04:20:21;406.40;;;395.80;;
38994;SDS011;24769;18.712;99.000;2023-04-06T04:22:48;411.40;;;396.20;;
38994;SDS011;24769;18.712;99.000;2023-04-06T04:25:15;396.20;;;392.00;;
38994;SDS011;24769;18.712;99.000;2023-04-06T04:27:41;391.80;;;381.40;;
38994;SDS011;24769;18.712;99.000;2023-04-06T04:30:08;404.60;;;392.60;;
38994;SDS011;24769;18.712;99.000;2023-04-06T04:32:35;400.00;;;387.25;;
38994;SDS011;24769;18.712;99.000;2023-04-06T04:35:02;407.00;;;397.20;;
38994;SDS011;24769;18.712;99.000;2023-04-06T04:37:29;382.25;;;378.50;;
38994;SDS011;24769;18.712;99.000;2023-04-06T04:39:56;390.00;;;382.25;;
38994;SDS011;24769;18.712;99.000;2023-04-06T04:42:22;385.50;;;375.00;;
38994;SDS011;24769;18.712;99.000;2023-04-06T04:44:49;376.50;;;369.75;;
38994;SDS011;24769;18.712;99.000;2023-04-06T04:47:16;360.50;;;349.25;;
38994;SDS011;24769;18.712;99.000;2023-04-06T04:49:42;357.00;;;348.50;;
38994;SDS011;24769;18.712;99.000;2023-04-06T04:52:09;347.50;;;338.50;;
38994;SDS011;24769;18.712;99.000;2023-04-06T04:54:36;339.75;;;336.25;;
38994;SDS011;24769;18.712;99.000;2023-04-06T04:57:03;343.20;;;335.80;;
38994;SDS011;24769;18.712;99.000;2023-04-06T04:59:29;350.25;;;338.75;;
38994;SDS011;24769;18.712;99.000;2023-04-06T05:01:56;357.50;;;343.00;;
38994;SDS011;24769;18.712;99.000;2023-04-06T05:04:23;359.50;;;350.75;;
38994;SDS011;24769;18.712;99.000;2023-04-06T05:06:50;340.25;;;335.50;;
38994;SDS011;24769;18.712;99.000;2023-04-06T05:09:16;343.75;;;335.00;;
38994;SDS011;24769;18.712;99.000;2023-04-06T05:11:43;349.75;;;346.50;;
38994;SDS011;24769;18.712;99.000;2023-04-06T05:14:10;315.25;;;313.75;;
38994;SDS011;24769;18.712;99.000;2023-04-06T05:16:36;312.80;;;308.80;;
38994;SDS011;24769;18.712;99.000;2023-04-06T05:19:04;334.25;;;328.50;;
38994;SDS011;24769;18.712;99.000;2023-04-06T05:21:30;359.20;;;350.80;;
38994;SDS011;24769;18.712;99.000;2023-04-06T05:23:57;325.20;;;315.40;;
38994;SDS011;24769;18.712;99.000;2023-04-06T05:26:24;317.00;;;310.40;;
38994;SDS011;24769;18.712;99.000;2023-04-06T05:28:51;310.20;;;307.60;;
38994;SDS011;24769;18.712;99.000;2023-04-06T05:31:17;330.00;;;322.75;;
38994;SDS011;24769;18.712;99.000;2023-04-06T05:33:44;338.80;;;336.40;;
38994;SDS011;24769;18.712;99.000;2023-04-06T05:36:11;309.00;;;301.00;;
38994;SDS011;24769;18.712;99.000;2023-04-06T05:38:40;324.75;;;317.25;;
38994;SDS011;24769;18.712;99.000;2023-04-06T05:41:06;319.25;;;315.25;;
38994;SDS011;24769;18.712;99.000;2023-04-06T05:43:33;317.60;;;312.60;;
38994;SDS011;24769;18.712;99.000;2023-04-06T05:46:00;297.80;;;294.60;;
38994;SDS011;24769;18.712;99.000;2023-04-06T05:48:26;297.25;;;296.00;;
38994;SDS011;24769;18.712;99.000;2023-04-06T05:50:53;301.00;;;286.75;;
38994;SDS011;24769;18.712;99.000;2023-04-06T05:53:20;274.20;;;272.40;;
38994;SDS011;24769;18.712;99.000;2023-04-06T05:55:47;275.75;;;266.75;;
38994;SDS011;24769;18.712;99.000;2023-04-06T05:58:13;261.00;;;257.75;;
38994;SDS011;24769;18.712;99.000;2023-04-06T06:00:42;269.67;;;268.00;;
38994;SDS011;24769;18.712;99.000;2023-04-06T06:03:11;269.50;;;266.25;;
38994;SDS011;24769;18.712;99.000;2023-04-06T06:05:38;283.00;;;275.50;;
38994;SDS011;24769;18.712;99.000;2023-04-06T06:08:05;281.00;;;277.75;;
38994;SDS011;24769;18.712;99.000;2023-04-06T06:10:32;280.00;;;275.25;;
38994;SDS011;24769;18.712;99.000;2023-04-06T06:12:59;292.60;;;287.60;;
38994;SDS011;24769;18.712;99.000;2023-04-06T06:15:25;288.00;;;285.50;;
38994;SDS011;24769;18.712;99.000;2023-04-06T06:17:52;286.25;;;282.50;;
38994;SDS011;24769;18.712;99.000;2023-04-06T06:20:19;267.25;;;266.00;;
38994;SDS011;24769;18.712;99.000;2023-04-06T06:22:45;287.00;;;282.00;;
38994;SDS011;24769;18.712;99.000;2023-04-06T06:25:12;292.00;;;286.50;;
38994;SDS011;24769;18.712;99.000;2023-04-06T06:27:39;294.00;;;291.00;;
38994;SDS011;24769;18.712;99.000;2023-04-06T06:30:06;295.00;;;287.25;;
38994;SDS011;24769;18.712;99.000;2023-04-06T06:32:33;280.80;;;277.20;;
38994;SDS011;24769;18.712;99.000;2023-04-06T06:34:59;279.00;;;274.00;;
38994;SDS011;24769;18.712;99.000;2023-04-06T06:37:26;292.75;;;289.75;;
38994;SDS011;24769;18.712;99.000;2023-04-06T06:39:53;276.80;;;276.00;;
38994;SDS011;24769;18.712;99.000;2023-04-06T06:42:19;279.40;;;272.20;;
38994;SDS011;24769;18.712;99.000;2023-04-06T06:44:46;279.25;;;277.00;;
38994;SDS011;24769;18.712;99.000;2023-04-06T06:47:13;283.75;;;278.75;;
38994;SDS011;24769;18.712;99.000;2023-04-06T06:49:40;279.50;;;278.00;;
38994;SDS011;24769;18.712;99.000;2023-04-06T06:52:07;257.00;;;254.33;;
38994;SDS011;24769;18.712;99.000;2023-04-06T06:54:33;284.67;;;275.00;;
38994;SDS011;24769;18.712;99.000;2023-04-06T06:57:00;263.25;;;262.00;;
38994;SDS011;24769;18.712;99.000;2023-04-06T06:59:27;282.75;;;273.75;;
38994;SDS011;24769;18.712;99.000;2023-04-06T07:01:54;257.67;;;256.67;;
38994;SDS011;24769;18.712;99.000;2023-04-06T07:04:20;270.50;;;267.50;;
38994;SDS011;24769;18.712;99.000;2023-04-06T07:06:47;274.80;;;268.60;;
38994;SDS011;24769;18.712;99.000;2023-04-06T07:09:14;272.00;;;271.33;;
38994;SDS011;24769;18.712;99.000;2023-04-06T07:11:41;270.25;;;265.00;;
38994;SDS011;24769;18.712;99.000;2023-04-06T07:14:07;262.33;;;255.67;;
38994;SDS011;24769;18.712;99.000;2023-04-06T07:16:34;269.50;;;263.25;;
38994;SDS011;24769;18.712;99.000;2023-04-06T07:19:01;243.67;;;243.33;;
38994;SDS011;24769;18.712;99.000;2023-04-06T07:21:28;258.00;;;255.67;;
38994;SDS011;24769;18.712;99.000;2023-04-06T07:23:54;261.25;;;259.25;;
38994;SDS011;24769;18.712;99.000;2023-04-06T07:26:21;253.67;;;253.00;;
38994;SDS011;24769;18.712;99.000;2023-04-06T07:28:48;257.50;;;252.50;;
38994;SDS011;24769;18.712;99.000;2023-04-06T07:31:15;257.00;;;254.67;;
38994;SDS011;24769;18.712;99.000;2023-04-06T07:33:41;254.33;;;253.33;;
38994;SDS011;24769;18.712;99.000;2023-04-06T07:36:08;260.33;;;256.00;;
38994;SDS011;24769;18.712;99.000;2023-04-06T07:38:35;264.33;;;262.67;;
38994;SDS011;24769;18.712;99.000;2023-04-06T07:41:02;268.00;;;265.67;;
38994;SDS011;24769;18.712;99.000;2023-04-06T07:43:29;265.33;;;262.00;;
38994;SDS011;24769;18.712;99.000;2023-04-06T07:45:56;263.67;;;261.67;;
38994;SDS011;24769;18.712;99.000;2023-04-06T07:48:24;249.25;;;249.25;;
38994;SDS011;24769;18.712;99.000;2023-04-06T07:50:51;262.67;;;260.67;;
38994;SDS011;24769;18.712;99.000;2023-04-06T07:53:25;237.00;;;234.00;;
38994;SDS011;24769;18.712;99.000;2023-04-06T07:55:52;249.50;;;246.75;;
38994;SDS011;24769;18.712;99.000;2023-04-06T07:58:21;252.50;;;250.25;;
38994;SDS011;24769;18.712;99.000;2023-04-06T08:00:47;259.00;;;255.50;;
38994;SDS011;24769;18.712;99.000;2023-04-06T08:03:14;258.33;;;254.00;;
38994;SDS011;24769;18.712;99.000;2023-04-06T08:05:42;259.00;;;257.00;;
38994;SDS011;24769;18.712;99.000;2023-04-06T08:08:08;246.75;;;241.50;;
38994;SDS011;24769;18.712;99.000;2023-04-06T08:10:35;254.50;;;249.50;;
38994;SDS011;24769;18.712;99.000;2023-04-06T08:13:02;255.50;;;251.50;;
38994;SDS011;24769;18.712;99.000;2023-04-06T08:15:28;250.25;;;248.00;;
38994;SDS011;24769;18.712;99.000;2023-04-06T08:17:55;267.00;;;262.25;;
38994;SDS011;24769;18.712;99.000;2023-04-06T08:20:23;241.25;;;234.75;;
38994;SDS011;24769;18.712;99.000;2023-04-06T08:22:50;261.75;;;256.75;;
38994;SDS011;24769;18.712;99.000;2023-04-06T08:25:16;258.33;;;255.67;;
38994;SDS011;24769;18.712;99.000;2023-04-06T08:27:43;242.50;;;240.00;;
38994;SDS011;24769;18.712;99.000;2023-04-06T08:30:10;245.00;;;243.25;;
38994;SDS011;24769;18.712;99.000;2023-04-06T08:32:36;243.50;;;240.25;;
38994;SDS011;24769;18.712;99.000;2023-04-06T08:35:03;238.25;;;234.50;;
38994;SDS011;24769;18.712;99.000;2023-04-06T08:37:30;241.25;;;240.00;;
38994;SDS011;24769;18.712;99.000;2023-04-06T08:39:57;240.50;;;240.25;;
38994;SDS011;24769;18.712;99.000;2023-04-06T08:42:25;244.75;;;242.50;;
38994;SDS011;24769;18.712;99.000;2023-04-06T08:44:54;238.00;;;233.67;;
38994;SDS011;24769;18.712;99.000;2023-04-06T08:47:21;234.50;;;231.00;;
38994;SDS011;24769;18.712;99.000;2023-04-06T08:49:48;226.25;;;222.00;;
38994;SDS011;24769;18.712;99.000;2023-04-06T08:52:18;233.25;;;228.75;;
38994;SDS011;24769;18.712;99.000;2023-04-06T08:54:45;236.75;;;232.50;;
38994;SDS011;24769;18.712;99.000;2023-04-06T08:57:13;232.75;;;230.50;;
38994;SDS011;24769;18.712;99.000;2023-04-06T08:59:40;227.50;;;227.50;;
38994;SDS011;24769;18.712;99.000;2023-04-06T09:02:07;235.75;;;231.50;;
38994;SDS011;24769;18.712;99.000;2023-04-06T09:04:42;233.00;;;230.50;;
38994;SDS011;24769;18.712;99.000;2023-04-06T09:07:11;218.33;;;218.33;;
38994;SDS011;24769;18.712;99.000;2023-04-06T09:09:38;215.50;;;215.25;;
38994;SDS011;24769;18.712;99.000;2023-04-06T09:12:08;235.25;;;233.00;;
38994;SDS011;24769;18.712;99.000;2023-04-06T09:14:38;217.50;;;213.00;;
38994;SDS011;24769;18.712;99.000;2023-04-06T09:17:06;231.25;;;227.25;;
38994;SDS011;24769;18.712;99.000;2023-04-06T09:19:32;229.75;;;224.25;;
38994;SDS011;24769;18.712;99.000;2023-04-06T09:22:03;218.25;;;215.50;;
38994;SDS011;24769;18.712;99.000;2023-04-06T09:27:15;237.50;;;231.75;;
38994;SDS011;24769;18.712;99.000;2023-04-06T09:29:42;220.75;;;217.75;;
38994;SDS011;24769;18.712;99.000;2023-04-06T09:32:11;224.00;;;224.00;;
38994;SDS011;24769;18.712;99.000;2023-04-06T09:34:41;218.00;;;213.25;;
38994;SDS011;24769;18.712;99.000;2023-04-06T09:37:18;221.25;;;220.50;;
38994;SDS011;24769;18.712;99.000;2023-04-06T09:39:45;235.75;;;231.50;;
38994;SDS011;24769;18.712;99.000;2023-04-06T09:42:23;226.75;;;224.50;;
38994;SDS011;24769;18.712;99.000;2023-04-06T09:44:50;238.25;;;233.25;;
38994;SDS011;24769;18.712;99.000;2023-04-06T09:47:17;226.00;;;221.75;;
38994;SDS011;24769;18.712;99.000;2023-04-06T09:49:49;230.25;;;226.25;;
38994;SDS011;24769;18.712;99.000;2023-04-06T09:52:21;227.50;;;223.25;;
38994;SDS011;24769;18.712;99.000;2023-04-06T09:54:52;243.75;;;239.25;;
38994;SDS011;24769;18.712;99.000;2023-04-06T09:57:36;227.25;;;223.75;;
38994;SDS011;24769;18.712;99.000;2023-04-06T10:00:07;219.50;;;219.00;;
38994;SDS011;24769;18.712;99.000;2023-04-06T10:05:33;228.50;;;225.00;;
38994;SDS011;24769;18.712;99.000;2023-04-06T10:08:09;230.25;;;228.75;;
38994;SDS011;24769;18.712;99.000;2023-04-06T10:10:37;234.00;;;230.00;;
38994;SDS011;24769;18.712;99.000;2023-04-06T10:13:04;228.75;;;227.25;;
38994;SDS011;24769;18.712;99.000;2023-04-06T10:15:31;235.50;;;231.00;;
38994;SDS011;24769;18.712;99.000;2023-04-06T10:17:59;232.25;;;229.50;;
38994;SDS011;24769;18.712;99.000;2023-04-06T10:23:19;226.00;;;223.25;;
38994;SDS011;24769;18.712;99.000;2023-04-06T10:25:52;219.25;;;213.25;;
38994;SDS011;24769;18.712;99.000;2023-04-06T10:28:21;219.75;;;216.25;;
38994;SDS011;24769;18.712;99.000;2023-04-06T10:30:48;217.75;;;214.50;;
38994;SDS011;24769;18.712;99.000;2023-04-06T10:33:16;232.75;;;231.50;;
38994;SDS011;24769;18.712;99.000;2023-04-06T10:35:44;233.75;;;225.00;;
38994;SDS011;24769;18.712;99.000;2023-04-06T10:38:12;225.75;;;224.50;;
38994;SDS011;24769;18.712;99.000;2023-04-06T10:40:40;216.00;;;213.25;;
38994;SDS011;24769;18.712;99.000;2023-04-06T10:45:43;216.75;;;216.75;;
38994;SDS011;24769;18.712;99.000;2023-04-06T10:48:16;230.00;;;225.75;;
38994;SDS011;24769;18.712;99.000;2023-04-06T10:50:46;226.75;;;224.00;;
38994;SDS011;24769;18.712;99.000;2023-04-06T10:53:24;228.75;;;222.75;;
38994;SDS011;24769;18.712;99.000;2023-04-06T10:55:53;226.50;;;218.50;;
38994;SDS011;24769;18.712;99.000;2023-04-06T10:58:25;235.00;;;232.50;;
38994;SDS011;24769;18.712;99.000;2023-04-06T11:00:52;240.25;;;236.50;;
38994;SDS011;24769;18.712;99.000;2023-04-06T11:03:21;230.75;;;228.75;;
38994;SDS011;24769;18.712;99.000;2023-04-06T11:05:49;218.00;;;216.33;;
38994;SDS011;24769;18.712;99.000;2023-04-06T11:08:27;230.75;;;227.00;;
38994;SDS011;24769;18.712;99.000;2023-04-06T11:11:04;238.75;;;233.25;;
38994;SDS011;24769;18.712;99.000;2023-04-06T11:16:16;241.33;;;237.67;;
38994;SDS011;24769;18.712;99.000;2023-04-06T11:18:48;241.33;;;236.67;;
38994;SDS011;24769;18.712;99.000;2023-04-06T11:21:30;243.67;;;238.00;;
38994;SDS011;24769;18.712;99.000;2023-04-06T11:24:05;233.00;;;225.67;;
38994;SDS011;24769;18.712;99.000;2023-04-06T11:26:39;237.33;;;235.67;;
38994;SDS011;24769;18.712;99.000;2023-04-06T11:29:08;241.00;;;239.25;;
38994;SDS011;24769;18.712;99.000;2023-04-06T11:31:39;245.67;;;242.33;;
38994;SDS011;24769;18.712;99.000;2023-04-06T11:34:11;250.75;;;244.50;;
38994;SDS011;24769;18.712;99.000;2023-04-06T11:36:42;246.33;;;241.67;;
38994;SDS011;24769;18.712;99.000;2023-04-06T11:39:11;244.50;;;238.75;;
38994;SDS011;24769;18.712;99.000;2023-04-06T11:41:48;247.25;;;234.00;;
38994;SDS011;24769;18.712;99.000;2023-04-06T11:44:28;254.75;;;248.25;;
38994;SDS011;24769;18.712;99.000;2023-04-06T11:47:06;252.25;;;245.75;;
38994;SDS011;24769;18.712;99.000;2023-04-06T11:49:38;264.50;;;253.25;;
38994;SDS011;24769;18.712;99.000;2023-04-06T11:54:46;247.75;;;241.25;;
38994;SDS011;24769;18.712;99.000;2023-04-06T11:57:15;266.50;;;259.00;;
38994;SDS011;24769;18.712;99.000;2023-04-06T11:59:43;256.75;;;252.75;;
38994;SDS011;24769;18.712;99.000;2023-04-06T12:02:10;258.00;;;251.50;;
38994;SDS011;24769;18.712;99.000;2023-04-06T12:04:37;246.67;;;236.67;;
38994;SDS011;24769;18.712;99.000;2023-04-06T12:07:04;241.50;;;238.50;;
38994;SDS011;24769;18.712;99.000;2023-04-06T12:09:31;243.00;;;235.25;;
38994;SDS011;24769;18.712;99.000;2023-04-06T12:12:00;262.25;;;248.25;;
38994;SDS011;24769;18.712;99.000;2023-04-06T12:14:27;248.25;;;244.50;;
38994;SDS011;24769;18.712;99.000;2023-04-06T12:16:56;247.75;;;242.50;;
38994;SDS011;24769;18.712;99.000;2023-04-06T12:19:23;248.75;;;243.75;;
38994;SDS011;24769;18.712;99.000;2023-04-06T12:21:51;251.75;;;247.50;;
38994;SDS011;24769;18.712;99.000;2023-04-06T12:24:19;229.75;;;221.25;;
38994;SDS011;24769;18.712;99.000;2023-04-06T12:26:46;235.00;;;230.00;;
38994;SDS011;24769;18.712;99.000;2023-04-06T12:29:15;244.50;;;239.50;;
38994;SDS011;24769;18.712;99.000;2023-04-06T12:31:45;261.75;;;253.75;;
38994;SDS011;24769;18.712;99.000;2023-04-06T12:34:12;248.25;;;239.75;;
38994;SDS011;24769;18.712;99.000;2023-04-06T12:36:40;253.75;;;245.75;;
38994;SDS011;24769;18.712;99.000;2023-04-06T12:39:07;246.50;;;242.75;;
38994;SDS011;24769;18.712;99.000;2023-04-06T12:41:34;240.75;;;235.25;;
38994;SDS011;24769;18.712;99.000;2023-04-06T12:44:01;238.00;;;238.00;;
38994;SDS011;24769;18.712;99.000;2023-04-06T12:46:27;241.50;;;240.75;;
38994;SDS011;24769;18.712;99.000;2023-04-06T12:48:57;251.75;;;246.50;;
38994;SDS011;24769;18.712;99.000;2023-04-06T12:51:27;255.25;;;253.25;;
38994;SDS011;24769;18.712;99.000;2023-04-06T12:53:54;240.75;;;237.00;;
38994;SDS011;24769;18.712;99.000;2023-04-06T12:56:20;253.25;;;246.75;;
38994;SDS011;24769;18.712;99.000;2023-04-06T12:58:47;259.00;;;256.75;;
38994;SDS011;24769;18.712;99.000;2023-04-06T13:01:16;248.75;;;240.00;;
38994;SDS011;24769;18.712;99.000;2023-04-06T13:03:43;265.75;;;257.00;;
38994;SDS011;24769;18.712;99.000;2023-04-06T13:06:10;252.25;;;244.75;;
38994;SDS011;24769;18.712;99.000;2023-04-06T13:08:39;256.00;;;251.25;;
38994;SDS011;24769;18.712;99.000;2023-04-06T13:11:06;254.00;;;247.00;;
38994;SDS011;24769;18.712;99.000;2023-04-06T13:13:36;249.75;;;248.00;;
38994;SDS011;24769;18.712;99.000;2023-04-06T13:16:04;261.00;;;253.25;;
38994;SDS011;24769;18.712;99.000;2023-04-06T13:18:32;244.50;;;235.00;;
38994;SDS011;24769;18.712;99.000;2023-04-06T13:21:00;266.25;;;256.50;;
38994;SDS011;24769;18.712;99.000;2023-04-06T13:23:27;244.25;;;239.75;;
38994;SDS011;24769;18.712;99.000;2023-04-06T13:26:03;259.25;;;254.50;;
38994;SDS011;24769;18.712;99.000;2023-04-06T13:28:31;250.25;;;241.75;;
38994;SDS011;24769;18.712;99.000;2023-04-06T13:31:01;264.00;;;257.25;;
38994;SDS011;24769;18.712;99.000;2023-04-06T13:33:28;259.50;;;254.00;;
38994;SDS011;24769;18.712;99.000;2023-04-06T13:35:56;254.50;;;248.00;;
38994;SDS011;24769;18.712;99.000;2023-04-06T13:38:23;249.75;;;244.00;;
38994;SDS011;24769;18.712;99.000;2023-04-06T13:40:50;254.50;;;248.25;;
38994;SDS011;24769;18.712;99.000;2023-04-06T13:43:17;264.75;;;252.50;;
38994;SDS011;24769;18.712;99.000;2023-04-06T13:45:49;274.25;;;262.25;;
38994;SDS011;24769;18.712;99.000;2023-04-06T13:48:16;243.00;;;238.75;;
38994;SDS011;24769;18.712;99.000;2023-04-06T13:50:44;257.50;;;255.25;;
38994;SDS011;24769;18.712;99.000;2023-04-06T13:53:13;272.25;;;266.75;;
38994;SDS011;24769;18.712;99.000;2023-04-06T13:56:00;277.75;;;265.75;;
38994;SDS011;24769;18.712;99.000;2023-04-06T13:58:27;271.25;;;257.50;;
38994;SDS011;24769;18.712;99.000;2023-04-06T14:00:54;264.25;;;256.75;;
38994;SDS011;24769;18.712;99.000;2023-04-06T14:03:21;240.00;;;238.25;;